createdAt,value
2019-04-25T00:01:25.720Z,97917.00
2019-04-25T00:07:09.309Z,97923.00
2019-04-25T00:12:53.176Z,97939.00
2019-04-25T00:19:07.761Z,97813.00
2019-04-25T00:22:08.048Z,97907.00
2019-04-25T00:25:16.002Z,97896.00
2019-04-25T00:27:51.631Z,97896.00
2019-04-25T00:30:33.187Z,97898.00
2019-04-25T00:33:33.334Z,97941.00
2019-04-25T00:36:14.795Z,97929.00
2019-04-25T00:38:56.295Z,97879.00
2019-04-25T00:47:51.501Z,97908.00
2019-04-25T00:50:54.479Z,97888.00
2019-04-25T00:53:34.945Z,97922.00
2019-04-25T00:56:15.734Z,97912.00
2019-04-25T01:05:15.111Z,97865.00
2019-04-25T01:18:45.310Z,97951.00
2019-04-25T01:21:25.355Z,97964.00
2019-04-25T01:24:31.397Z,97960.00
2019-04-25T01:27:18.759Z,97996.00
2019-04-25T01:37:23.948Z,97878.00
2019-04-25T01:40:31.215Z,98007.00
2019-04-25T01:49:43.819Z,97973.00
2019-04-25T01:52:33.430Z,98007.00
2019-04-25T01:59:08.167Z,97978.00
2019-04-25T02:08:07.325Z,97934.00
2019-04-25T02:14:59.916Z,97979.00
2019-04-25T02:17:47.732Z,97995.00
2019-04-25T02:23:44.172Z,97975.00
2019-04-25T02:26:34.066Z,97989.00
2019-04-25T02:29:23.524Z,97985.00
2019-04-25T02:32:14.592Z,97992.00
2019-04-25T02:37:50.649Z,97999.00
2019-04-25T02:43:28.315Z,97991.00
2019-04-25T02:50:02.230Z,97995.00
2019-04-25T02:56:29.925Z,98004.00
2019-04-25T02:59:08.475Z,98016.00
2019-04-25T03:01:36.006Z,98021.00
2019-04-25T03:04:10.751Z,98012.00
2019-04-25T03:06:36.191Z,98023.00
2019-04-25T03:09:07.584Z,98029.00
2019-04-25T03:11:36.971Z,98024.00
2019-04-25T03:14:08.670Z,98006.00
2019-04-25T03:16:37.301Z,98011.00
2019-04-25T03:19:18.505Z,98013.00
2019-04-25T03:21:48.700Z,98021.00
2019-04-25T03:24:17.888Z,98013.00
2019-04-25T03:26:47.029Z,98014.00
2019-04-25T03:29:16.109Z,98030.00
2019-04-25T03:31:45.274Z,98025.00
2019-04-25T03:34:19.866Z,98022.00
2019-04-25T03:36:45.435Z,98029.00
2019-04-25T03:39:16.384Z,98027.00
2019-04-25T03:41:45.482Z,98022.00
2019-04-25T03:44:14.813Z,98026.00
2019-04-25T03:46:44.183Z,98018.00
2019-04-25T03:49:13.930Z,98021.00
2019-04-25T03:51:43.854Z,98018.00
2019-04-25T03:54:14.280Z,98033.00
2019-04-25T03:56:51.992Z,98040.00
2019-04-25T03:59:14.671Z,98046.00
2019-04-25T04:01:45.187Z,98046.00
2019-04-25T04:04:16.326Z,98067.00
2019-04-25T04:06:45.152Z,98082.00
2019-04-25T04:09:15.218Z,98090.00
2019-04-25T04:11:44.704Z,98080.00
2019-04-25T04:14:15.410Z,98081.00
2019-04-25T04:17:05.083Z,98087.00
2019-04-25T04:19:38.175Z,98087.00
2019-04-25T04:22:18.116Z,98088.00
2019-04-25T04:24:50.935Z,98084.00
2019-04-25T04:27:20.156Z,98084.00
2019-04-25T04:29:49.416Z,98079.00
2019-04-25T04:32:18.553Z,98088.00
2019-04-25T04:34:48.329Z,98087.00
2019-04-25T04:37:17.601Z,98080.00
2019-04-25T04:39:46.806Z,98092.00
2019-04-25T04:42:16.164Z,98105.00
2019-04-25T04:44:45.247Z,98089.00
2019-04-25T04:47:15.420Z,98093.00
2019-04-25T04:49:44.508Z,98104.00
2019-04-25T04:52:14.678Z,98102.00
2019-04-25T04:54:44.392Z,98110.00
2019-04-25T04:57:22.760Z,98106.00
2019-04-25T04:59:44.742Z,98117.00
2019-04-25T05:02:33.405Z,98115.00
2019-04-25T05:05:24.768Z,98114.00
2019-04-25T05:07:57.616Z,98112.00
2019-04-25T05:10:26.771Z,98120.00
2019-04-25T05:12:55.924Z,98115.00
2019-04-25T05:15:25.056Z,98121.00
2019-04-25T05:17:54.348Z,98128.00
2019-04-25T05:20:24.244Z,98125.00
2019-04-25T05:22:55.012Z,98132.00
2019-04-25T05:25:24.830Z,98138.00
2019-04-25T05:28:00.641Z,98136.00
2019-04-25T05:30:31.106Z,98142.00
2019-04-25T05:33:00.298Z,98137.00
2019-04-25T05:35:29.445Z,98125.00
2019-04-25T05:37:58.531Z,98134.00
2019-04-25T05:40:27.673Z,98142.00
2019-04-25T05:43:03.296Z,98133.00
2019-04-25T05:45:34.069Z,98140.00
2019-04-25T05:48:05.673Z,98134.00
2019-04-25T05:50:34.246Z,98132.00
2019-04-25T05:53:04.295Z,98137.00
2019-04-25T05:55:34.131Z,98140.00
2019-04-25T05:58:03.975Z,98141.00
2019-04-25T06:00:33.992Z,98143.00
2019-04-25T06:03:03.850Z,98138.00
2019-04-25T06:05:33.668Z,98146.00
2019-04-25T06:08:04.302Z,98130.00
2019-04-25T06:10:55.465Z,98137.00
2019-04-25T06:13:49.720Z,98130.00
2019-04-25T06:16:24.259Z,98131.00
2019-04-25T06:19:16.299Z,98133.00
2019-04-25T06:21:43.520Z,98129.00
2019-04-25T06:24:37.882Z,98137.00
2019-04-25T06:27:27.031Z,98133.00
2019-04-25T06:30:06.502Z,98120.00
2019-04-25T06:32:35.664Z,98116.00
2019-04-25T06:35:05.762Z,98105.00
2019-04-25T06:37:35.147Z,98101.00
2019-04-25T06:40:05.397Z,98104.00
2019-04-25T06:42:35.225Z,98083.00
2019-04-25T06:45:13.541Z,98071.00
2019-04-25T06:48:01.775Z,98069.00
2019-04-25T06:50:31.094Z,98064.00
2019-04-25T06:53:00.254Z,98067.00
2019-04-25T06:55:30.161Z,98069.00
2019-04-25T06:58:09.189Z,98064.00
2019-04-25T07:00:34.170Z,98073.00
2019-04-25T07:03:01.256Z,98075.00
2019-04-25T07:05:35.850Z,98095.00
2019-04-25T07:08:03.200Z,98091.00
2019-04-25T07:10:33.904Z,98085.00
2019-04-25T07:13:04.309Z,98100.00
2019-04-25T07:15:34.130Z,98102.00
2019-04-25T07:18:04.415Z,98090.00
2019-04-25T07:20:34.554Z,98089.00
2019-04-25T07:23:04.932Z,98092.00
2019-04-25T07:25:37.247Z,98088.00
2019-04-25T07:28:28.383Z,98091.00
2019-04-25T07:31:06.800Z,98088.00
2019-04-25T07:33:41.416Z,98079.00
2019-04-25T07:36:10.545Z,98078.00
2019-04-25T07:38:39.806Z,98063.00
2019-04-25T07:41:08.960Z,98066.00
2019-04-25T07:43:38.043Z,98067.00
2019-04-25T07:46:07.120Z,98068.00
2019-04-25T07:48:37.172Z,98070.00
2019-04-25T07:51:07.266Z,98063.00
2019-04-25T07:53:37.509Z,98053.00
2019-04-25T07:56:06.652Z,98055.00
2019-04-25T07:58:49.080Z,98052.00
2019-04-25T08:01:13.985Z,98044.00
2019-04-25T08:03:43.824Z,98044.00
2019-04-25T08:06:13.725Z,98041.00
2019-04-25T08:08:43.743Z,98029.00
2019-04-25T08:11:14.077Z,98035.00
2019-04-25T08:14:03.435Z,98037.00
2019-04-25T08:16:34.774Z,98037.00
2019-04-25T08:19:04.857Z,98026.00
2019-04-25T08:21:35.135Z,98027.00
2019-04-25T08:24:04.871Z,98028.00
2019-04-25T08:26:36.082Z,98022.00
2019-04-25T08:29:04.808Z,98035.00
2019-04-25T08:31:34.964Z,98029.00
2019-04-25T08:34:04.626Z,98037.00
2019-04-25T08:36:37.055Z,98026.00
2019-04-25T08:39:07.494Z,98030.00
2019-04-25T08:41:37.056Z,98023.00
2019-04-25T08:44:06.096Z,98039.00
2019-04-25T08:46:36.782Z,98024.00
2019-04-25T08:49:20.939Z,98030.00
2019-04-25T08:51:50.644Z,98034.00
2019-04-25T08:54:32.598Z,98027.00
2019-04-25T08:57:04.354Z,98030.00
2019-04-25T09:00:06.102Z,98025.00
2019-04-25T09:02:48.311Z,98024.00
2019-04-25T09:05:20.626Z,98015.00
2019-04-25T09:07:49.876Z,98013.00
2019-04-25T09:10:19.128Z,98017.00
2019-04-25T09:12:48.398Z,98010.00
2019-04-25T09:15:17.778Z,98004.00
2019-04-25T09:17:47.257Z,98005.00
2019-04-25T09:20:16.499Z,98005.00
2019-04-25T09:22:45.635Z,97996.00
2019-04-25T09:25:14.790Z,98006.00
2019-04-25T09:27:47.061Z,98002.00
2019-04-25T09:30:16.335Z,97999.00
2019-04-25T09:32:45.780Z,97995.00
2019-04-25T09:35:14.921Z,97989.00
2019-04-25T09:37:45.338Z,97990.00
2019-04-25T09:40:15.653Z,97988.00
2019-04-25T09:42:46.282Z,97988.00
2019-04-25T09:45:33.588Z,97981.00
2019-04-25T09:48:08.925Z,97983.00
2019-04-25T09:50:41.462Z,97977.00
2019-04-25T09:53:21.944Z,97986.00
2019-04-25T09:56:01.939Z,97983.00
2019-04-25T09:58:56.359Z,97973.00
2019-04-25T10:01:26.739Z,97975.00
2019-04-25T10:03:55.905Z,97976.00
2019-04-25T10:06:25.400Z,97966.00
2019-04-25T10:08:54.637Z,97972.00
2019-04-25T10:11:23.900Z,97967.00
2019-04-25T10:14:29.178Z,97961.00
2019-04-25T10:16:58.310Z,97962.00
2019-04-25T10:19:27.451Z,97962.00
2019-04-25T10:21:56.753Z,97951.00
2019-04-25T10:24:25.902Z,97949.00
2019-04-25T10:26:55.077Z,97941.00
2019-04-25T10:29:24.693Z,97935.00
2019-04-25T10:31:55.326Z,97930.00
2019-04-25T10:34:24.654Z,97926.00
2019-04-25T10:36:53.876Z,97929.00
2019-04-25T10:39:23.358Z,97935.00
2019-04-25T10:41:54.056Z,97922.00
2019-04-25T10:44:24.567Z,97904.00
2019-04-25T10:46:54.622Z,97910.00
2019-04-25T10:49:24.191Z,97910.00
2019-04-25T10:51:53.696Z,97900.00
2019-04-25T10:54:23.020Z,97895.00
2019-04-25T10:56:52.295Z,97892.00
2019-04-25T10:59:31.774Z,97885.00
2019-04-25T11:02:01.574Z,97890.00
2019-04-25T11:04:48.220Z,97898.00
2019-04-25T11:07:15.806Z,97891.00
2019-04-25T11:09:46.782Z,97889.00
2019-04-25T11:12:15.932Z,97878.00
2019-04-25T11:14:46.368Z,97875.00
2019-04-25T11:17:15.792Z,97885.00
2019-04-25T11:19:45.151Z,97869.00
2019-04-25T11:22:15.625Z,97873.00
2019-04-25T11:24:45.837Z,97863.00
2019-04-25T11:27:15.036Z,97855.00
2019-04-25T11:29:45.055Z,97859.00
2019-04-25T11:32:15.990Z,97863.00
2019-04-25T11:34:47.190Z,97865.00
2019-04-25T11:37:16.770Z,97856.00
2019-04-25T11:39:54.925Z,97856.00
2019-04-25T11:42:25.332Z,97853.00
2019-04-25T11:44:55.600Z,97856.00
2019-04-25T11:47:24.727Z,97859.00
2019-04-25T11:49:54.697Z,97844.00
2019-04-25T11:52:28.127Z,97845.00
2019-04-25T11:54:55.830Z,97843.00
2019-04-25T11:57:24.970Z,97840.00
2019-04-25T11:59:54.615Z,97838.00
2019-04-25T12:02:26.097Z,97830.00
2019-04-25T12:04:55.393Z,97829.00
2019-04-25T12:07:24.645Z,97826.00
2019-04-25T12:09:54.475Z,97830.00
2019-04-25T12:12:27.009Z,97820.00
2019-04-25T12:14:56.294Z,97820.00
2019-04-25T12:17:25.526Z,97816.00
2019-04-25T12:19:55.314Z,97823.00
2019-04-25T12:22:25.716Z,97810.00
2019-04-25T12:24:55.746Z,97804.00
2019-04-25T12:27:24.883Z,97801.00
2019-04-25T12:29:54.612Z,97793.00
2019-04-25T12:32:23.914Z,97785.00
2019-04-25T12:34:53.690Z,97790.00
2019-04-25T12:37:23.260Z,97779.00
2019-04-25T12:39:53.880Z,97794.00
2019-04-25T12:42:24.211Z,97792.00
2019-04-25T12:45:01.198Z,97793.00
2019-04-25T12:47:31.119Z,97797.00
2019-04-25T12:50:00.410Z,97784.00
2019-04-25T12:52:29.559Z,97780.00
2019-04-25T12:54:58.721Z,97781.00
2019-04-25T12:57:27.839Z,97776.00
2019-04-25T12:59:57.605Z,97776.00
2019-04-25T13:02:27.115Z,97771.00
2019-04-25T13:04:56.253Z,97773.00
2019-04-25T13:07:25.707Z,97767.00
2019-04-25T13:09:55.426Z,97770.00
2019-04-25T13:12:24.962Z,97775.00
2019-04-25T13:14:54.279Z,97773.00
2019-04-25T13:17:24.146Z,97767.00
2019-04-25T13:19:54.275Z,97758.00
2019-04-25T13:22:23.875Z,97760.00
2019-04-25T13:24:53.455Z,97758.00
2019-04-25T13:27:41.713Z,97754.00
2019-04-25T13:30:29.910Z,97750.00
2019-04-25T13:33:27.337Z,97758.00
2019-04-25T13:36:04.092Z,97755.00
2019-04-25T13:38:33.360Z,97754.00
2019-04-25T13:41:02.519Z,97753.00
2019-04-25T13:43:31.674Z,97765.00
2019-04-25T13:46:01.163Z,97756.00
2019-04-25T13:48:30.469Z,97748.00
2019-04-25T13:50:59.817Z,97741.00
2019-04-25T13:53:29.455Z,97743.00
2019-04-25T13:55:58.691Z,97737.00
2019-04-25T13:58:31.245Z,97735.00
2019-04-25T14:01:12.341Z,97734.00
2019-04-25T14:03:34.056Z,97728.00
2019-04-25T14:06:04.936Z,97727.00
2019-04-25T14:08:34.254Z,97725.00
2019-04-25T14:11:05.153Z,97725.00
2019-04-25T14:13:34.448Z,97714.00
2019-04-25T14:16:26.669Z,97716.00
2019-04-25T14:19:25.336Z,97717.00
2019-04-25T14:21:56.826Z,97703.00
2019-04-25T14:24:29.507Z,97702.00
2019-04-25T14:26:56.785Z,97709.00
2019-04-25T14:29:26.129Z,97706.00
2019-04-25T14:31:55.413Z,97690.00
2019-04-25T14:34:25.373Z,97692.00
2019-04-25T14:36:55.715Z,97689.00
2019-04-25T14:39:25.306Z,97679.00
2019-04-25T14:41:54.631Z,97688.00
2019-04-25T14:44:23.944Z,97685.00
2019-04-25T14:46:55.990Z,97693.00
2019-04-25T14:49:26.261Z,97692.00
2019-04-25T14:51:55.581Z,97683.00
2019-04-25T14:54:30.750Z,97685.00
2019-04-25T14:57:07.189Z,97672.00
2019-04-25T14:59:36.259Z,97674.00
2019-04-25T15:02:05.669Z,97674.00
2019-04-25T15:04:35.363Z,97670.00
2019-04-25T15:07:04.668Z,97671.00
2019-04-25T15:09:34.065Z,97670.00
2019-04-25T15:12:03.269Z,97658.00
2019-04-25T15:14:33.486Z,97665.00
2019-04-25T15:17:04.320Z,97668.00
2019-04-25T15:19:34.033Z,97663.00
2019-04-25T15:22:03.374Z,97670.00
2019-04-25T15:24:32.550Z,97667.00
2019-04-25T15:27:01.909Z,97662.00
2019-04-25T15:29:34.300Z,97653.00
2019-04-25T15:32:04.915Z,97657.00
2019-04-25T15:34:50.415Z,97648.00
2019-04-25T15:37:27.976Z,97653.00
2019-04-25T15:40:08.458Z,97644.00
2019-04-25T15:42:55.257Z,97654.00
2019-04-25T15:45:46.041Z,97646.00
2019-04-25T15:48:15.460Z,97637.00
2019-04-25T15:50:44.878Z,97637.00
2019-04-25T15:53:14.201Z,97637.00
2019-04-25T15:55:43.332Z,97632.00
2019-04-25T15:58:12.499Z,97625.00
2019-04-25T16:00:41.944Z,97624.00
2019-04-25T16:03:11.685Z,97620.00
2019-04-25T16:05:40.885Z,97621.00
2019-04-25T16:08:10.091Z,97615.00
2019-04-25T16:10:39.409Z,97622.00
2019-04-25T16:13:08.879Z,97617.00
2019-04-25T16:15:38.139Z,97611.00
2019-04-25T16:18:07.280Z,97607.00
2019-04-25T16:20:36.402Z,97608.00
2019-04-25T16:23:06.431Z,97610.00
2019-04-25T16:25:35.769Z,97609.00
2019-04-25T16:28:05.024Z,97600.00
2019-04-25T16:30:34.585Z,97596.00
2019-04-25T16:33:03.872Z,97604.00
2019-04-25T16:35:33.432Z,97595.00
2019-04-25T16:38:03.680Z,97583.00
2019-04-25T16:40:33.850Z,97583.00
2019-04-25T16:43:04.776Z,97587.00
2019-04-25T16:45:35.392Z,97584.00
2019-04-25T16:48:04.590Z,97576.00
2019-04-25T16:50:34.476Z,97582.00
2019-04-25T16:53:03.787Z,97577.00
2019-04-25T16:55:34.266Z,97591.00
2019-04-25T16:58:04.516Z,97580.00
2019-04-25T17:00:56.206Z,97571.00
2019-04-25T17:03:29.937Z,97578.00
2019-04-25T17:05:59.069Z,97559.00
2019-04-25T17:08:28.505Z,97568.00
2019-04-25T17:10:57.695Z,97566.00
2019-04-25T17:13:29.679Z,97569.00
2019-04-25T17:16:21.122Z,97560.00
2019-04-25T17:18:54.933Z,97560.00
2019-04-25T17:21:24.239Z,97566.00
2019-04-25T17:23:53.478Z,97566.00
2019-04-25T17:26:23.412Z,97559.00
2019-04-25T17:28:54.616Z,97564.00
2019-04-25T17:31:31.397Z,97560.00
2019-04-25T17:34:12.464Z,97561.00
2019-04-25T17:36:48.812Z,97556.00
2019-04-25T17:39:39.703Z,97555.00
2019-04-25T17:42:08.994Z,97555.00
2019-04-25T17:44:38.398Z,97555.00
2019-04-25T17:47:07.732Z,97555.00
2019-04-25T17:49:36.981Z,97553.00
2019-04-25T17:52:06.539Z,97560.00
2019-04-25T17:54:36.594Z,97549.00
2019-04-25T17:57:06.036Z,97564.00
2019-04-25T17:59:36.803Z,97559.00
2019-04-25T18:02:06.182Z,97560.00
2019-04-25T18:04:35.439Z,97560.00
2019-04-25T18:07:04.727Z,97552.00
2019-04-25T18:09:35.429Z,97541.00
2019-04-25T18:12:04.794Z,97555.00
2019-04-25T18:14:35.168Z,97561.00
2019-04-25T18:17:04.905Z,97561.00
2019-04-25T18:19:41.149Z,97572.00
2019-04-25T18:22:17.698Z,97561.00
2019-04-25T18:25:06.056Z,97556.00
2019-04-25T18:27:41.982Z,97549.00
2019-04-25T18:30:11.453Z,97560.00
2019-04-25T18:32:45.493Z,97557.00
2019-04-25T18:35:20.433Z,97562.00
2019-04-25T18:38:05.026Z,97562.00
2019-04-25T18:40:53.620Z,97562.00
2019-04-25T18:43:36.921Z,97567.00
2019-04-25T18:46:12.754Z,97575.00
2019-04-25T18:48:42.812Z,97578.00
2019-04-25T18:51:12.159Z,97583.00
2019-04-25T18:54:03.355Z,97575.00
2019-04-25T18:56:37.617Z,97577.00
2019-04-25T18:59:30.636Z,97572.00
2019-04-25T19:02:18.033Z,97565.00
2019-04-25T19:04:57.041Z,97581.00
2019-04-25T19:07:29.369Z,97584.00
2019-04-25T19:09:58.689Z,97579.00
2019-04-25T19:12:28.095Z,97572.00
2019-04-25T19:14:57.435Z,97577.00
2019-04-25T19:17:27.118Z,97578.00
2019-04-25T19:19:56.447Z,97568.00
2019-04-25T19:22:26.108Z,97571.00
2019-04-25T19:24:55.308Z,97575.00
2019-04-25T19:27:24.615Z,97583.00
2019-04-25T19:29:53.968Z,97561.00
2019-04-25T19:32:23.656Z,97565.00
2019-04-25T19:34:53.113Z,97571.00
2019-04-25T19:37:22.601Z,97580.00
2019-04-25T19:40:16.919Z,97577.00
2019-04-25T19:42:49.785Z,97571.00
2019-04-25T19:45:19.145Z,97583.00
2019-04-25T19:47:49.301Z,97581.00
2019-04-25T19:50:18.572Z,97581.00
2019-04-25T19:52:48.061Z,97577.00
2019-04-25T19:55:17.454Z,97577.00
2019-04-25T19:57:50.304Z,97593.00
2019-04-25T20:00:20.332Z,97593.00
2019-04-25T20:03:01.016Z,97589.00
2019-04-25T20:05:37.837Z,97594.00
2019-04-25T20:08:23.890Z,97601.00
2019-04-25T20:11:01.332Z,97601.00
2019-04-25T20:13:32.515Z,97598.00
2019-04-25T20:16:01.929Z,97599.00
2019-04-25T20:18:31.235Z,97610.00
2019-04-25T20:21:00.672Z,97602.00
2019-04-25T20:23:29.964Z,97610.00
2019-04-25T20:25:59.299Z,97617.00
2019-04-25T20:28:28.520Z,97614.00
2019-04-25T20:30:58.462Z,97610.00
2019-04-25T20:33:27.796Z,97618.00
2019-04-25T20:35:57.018Z,97613.00
2019-04-25T20:38:26.301Z,97618.00
2019-04-25T20:40:56.063Z,97618.00
2019-04-25T20:43:25.367Z,97607.00
2019-04-25T20:45:54.637Z,97610.00
2019-04-25T20:48:24.211Z,97610.00
2019-04-25T20:50:53.359Z,97612.00
2019-04-25T20:53:22.752Z,97604.00
2019-04-25T20:55:52.835Z,97615.00
2019-04-25T20:58:22.059Z,97610.00
2019-04-25T21:00:54.046Z,97616.00
2019-04-25T21:03:23.502Z,97623.00
2019-04-25T21:05:55.153Z,97630.00
2019-04-25T21:08:24.561Z,97632.00
2019-04-25T21:10:53.822Z,97641.00
2019-04-25T21:13:31.767Z,97630.00
2019-04-25T21:16:11.234Z,97631.00
2019-04-25T21:18:45.447Z,97636.00
2019-04-25T21:21:14.750Z,97649.00
2019-04-25T21:23:43.957Z,97653.00
2019-04-25T21:26:13.123Z,97665.00
2019-04-25T21:28:42.444Z,97672.00
2019-04-25T21:31:11.646Z,97675.00
2019-04-25T21:33:40.746Z,97680.00
2019-04-25T21:36:10.034Z,97688.00
2019-04-25T21:38:39.622Z,97679.00
2019-04-25T21:41:26.534Z,97677.00
2019-04-25T21:44:00.197Z,97686.00
2019-04-25T21:46:29.675Z,97690.00
2019-04-25T21:48:59.206Z,97689.00
2019-04-25T21:51:31.466Z,97691.00
2019-04-25T21:54:01.564Z,97692.00
2019-04-25T21:56:30.920Z,97701.00
2019-04-25T21:59:00.061Z,97701.00
2019-04-25T22:01:33.037Z,97705.00
2019-04-25T22:04:02.928Z,97700.00
2019-04-25T22:06:32.565Z,97714.00
2019-04-25T22:09:02.970Z,97731.00
2019-04-25T22:11:32.291Z,97730.00
2019-04-25T22:14:01.791Z,97732.00
2019-04-25T22:16:31.187Z,97746.00
2019-04-25T22:19:00.587Z,97741.00
2019-04-25T22:21:37.974Z,97747.00
2019-04-25T22:24:08.947Z,97756.00
2019-04-25T22:26:31.777Z,97760.00
2019-04-25T22:29:01.318Z,97761.00
2019-04-25T22:31:35.546Z,97771.00
2019-04-25T22:34:26.752Z,97790.00
2019-04-25T22:36:56.166Z,97785.00
2019-04-25T22:39:25.536Z,97778.00
2019-04-25T22:41:54.963Z,97781.00
2019-04-25T22:44:24.459Z,97793.00
2019-04-25T22:46:54.442Z,97779.00
2019-04-25T22:49:23.825Z,97780.00
2019-04-25T22:51:53.004Z,97772.00
2019-04-25T22:54:23.314Z,97780.00
2019-04-25T22:56:52.693Z,97773.00
2019-04-25T22:59:22.383Z,97787.00
2019-04-25T23:02:16.287Z,97796.00
2019-04-25T23:05:12.044Z,97799.00
2019-04-25T23:07:38.791Z,97799.00
2019-04-25T23:10:08.470Z,97800.00
2019-04-25T23:12:37.993Z,97826.00
2019-04-25T23:15:07.316Z,97827.00
2019-04-25T23:17:36.534Z,97832.00
2019-04-25T23:20:06.179Z,97838.00
2019-04-25T23:22:35.378Z,97838.00
2019-04-25T23:25:09.885Z,97844.00
2019-04-25T23:27:56.042Z,97842.00
2019-04-25T23:30:29.989Z,97838.00
2019-04-25T23:32:59.233Z,97829.00
2019-04-25T23:35:33.031Z,97824.00
2019-04-25T23:37:59.437Z,97816.00
2019-04-25T23:40:28.945Z,97809.00
2019-04-25T23:42:58.385Z,97819.00
2019-04-25T23:45:27.628Z,97816.00
2019-04-25T23:47:56.693Z,97814.00
2019-04-25T23:50:26.060Z,97819.00
2019-04-25T23:52:55.288Z,97807.00
2019-04-25T23:55:24.725Z,97806.00
2019-04-25T23:57:53.854Z,97804.00
